createdAt,value
2022-07-26T00:00:10.964Z,7.65
2022-07-26T00:05:04.100Z,7.45
2022-07-26T00:09:59.865Z,7.40
2022-07-26T00:14:54.071Z,6.85
2022-07-26T00:19:47.704Z,8.25
2022-07-26T00:24:41.782Z,7.25
2022-07-26T00:29:35.672Z,7.80
2022-07-26T00:34:29.337Z,8.10
2022-07-26T00:39:25.341Z,8.60
2022-07-26T00:44:19.643Z,8.32
2022-07-26T00:49:14.194Z,8.07
2022-07-26T00:54:08.372Z,9.30
2022-07-26T00:59:03.447Z,9.48
2022-07-26T01:03:57.619Z,8.30
2022-07-26T01:08:52.286Z,8.85
2022-07-26T01:13:50.050Z,8.75
2022-07-26T01:18:44.257Z,8.68
2022-07-26T01:23:39.449Z,9.50
2022-07-26T01:28:37.620Z,9.70
2022-07-26T01:33:31.497Z,9.38
2022-07-26T01:38:25.466Z,8.68
2022-07-26T01:43:20.243Z,8.73
2022-07-26T01:48:14.169Z,8.50
2022-07-26T01:53:08.631Z,8.85
2022-07-26T01:58:02.649Z,8.85
2022-07-26T02:02:56.530Z,8.65
2022-07-26T02:07:51.211Z,9.05
2022-07-26T02:12:45.787Z,8.63
2022-07-26T02:17:38.932Z,9.10
2022-07-26T02:22:33.523Z,8.40
2022-07-26T02:27:26.779Z,8.40
2022-07-26T02:32:20.979Z,9.20
2022-07-26T02:37:15.174Z,9.18
2022-07-26T02:42:09.242Z,8.60
2022-07-26T02:47:03.131Z,7.93
2022-07-26T02:51:57.820Z,7.43
2022-07-26T02:56:52.168Z,6.90
2022-07-26T03:01:46.696Z,6.47
2022-07-26T03:06:40.773Z,6.40
2022-07-26T03:11:34.834Z,6.82
2022-07-26T03:16:29.881Z,6.55
2022-07-26T03:21:24.343Z,5.78
2022-07-26T03:26:18.316Z,5.93
2022-07-26T03:31:13.497Z,6.25
2022-07-26T03:36:11.623Z,6.05
2022-07-26T03:41:08.873Z,5.70
2022-07-26T03:46:08.230Z,5.43
2022-07-26T03:51:02.808Z,6.30
2022-07-26T03:56:16.055Z,5.30
2022-07-26T04:01:10.160Z,5.50
2022-07-26T04:06:03.863Z,5.35
2022-07-26T04:10:57.338Z,4.70
2022-07-26T04:15:50.283Z,5.35
2022-07-26T04:20:43.647Z,6.10
2022-07-26T04:25:40.509Z,5.90
2022-07-26T04:30:35.815Z,5.93
2022-07-26T04:35:29.858Z,5.63
2022-07-26T04:40:25.593Z,5.57
2022-07-26T04:45:19.101Z,5.90
2022-07-26T04:50:14.166Z,6.50
2022-07-26T04:55:11.023Z,7.10
2022-07-26T05:00:21.247Z,5.93
2022-07-26T05:05:15.252Z,6.50
2022-07-26T05:10:11.460Z,6.43
2022-07-26T05:15:13.602Z,7.90
2022-07-26T05:20:14.579Z,8.90
2022-07-26T05:25:10.292Z,7.60
2022-07-26T05:30:05.455Z,8.30
2022-07-26T05:34:59.416Z,8.52
2022-07-26T05:39:52.331Z,8.20
2022-07-26T05:44:45.810Z,8.25
2022-07-26T05:49:41.001Z,7.32
2022-07-26T05:54:35.096Z,9.85
2022-07-26T05:59:29.462Z,9.93
2022-07-26T06:04:26.579Z,9.70
2022-07-26T06:09:20.741Z,9.88
2022-07-26T06:14:14.765Z,11.48
2022-07-26T06:19:08.647Z,9.52
2022-07-26T06:24:16.955Z,10.48
2022-07-26T06:29:10.680Z,9.40
2022-07-26T06:34:04.068Z,9.30
2022-07-26T06:38:58.159Z,7.78
2022-07-26T06:43:52.379Z,7.45
2022-07-26T06:48:52.396Z,7.45
2022-07-26T06:53:47.828Z,7.75
2022-07-26T06:58:43.386Z,7.03
2022-07-26T07:03:37.212Z,7.57
2022-07-26T07:08:31.444Z,8.18
2022-07-26T07:13:25.159Z,10.15
2022-07-26T07:18:19.329Z,6.90
2022-07-26T07:23:14.744Z,7.72
2022-07-26T07:28:08.760Z,6.53
2022-07-26T07:33:03.546Z,6.28
2022-07-26T07:37:57.533Z,7.00
2022-07-26T07:42:50.979Z,7.75
2022-07-26T07:48:18.240Z,6.45
2022-07-26T07:53:13.752Z,6.30
2022-07-26T07:58:07.569Z,5.65
2022-07-26T08:03:01.001Z,6.70
2022-07-26T08:07:54.978Z,6.32
2022-07-26T08:12:51.181Z,6.40
2022-07-26T08:17:45.753Z,5.82
2022-07-26T08:22:45.245Z,5.97
2022-07-26T08:27:41.127Z,5.15
2022-07-26T08:32:35.641Z,5.50
2022-07-26T08:37:29.593Z,5.95
2022-07-26T08:42:24.433Z,5.03
2022-07-26T08:47:35.382Z,5.53
2022-07-26T08:52:34.324Z,5.03
2022-07-26T08:57:29.461Z,5.47
2022-07-26T09:02:23.375Z,4.85
2022-07-26T09:07:18.581Z,5.22
2022-07-26T09:12:21.271Z,5.03
2022-07-26T09:17:21.755Z,5.15
2022-07-26T09:22:16.775Z,5.28
2022-07-26T09:27:14.757Z,5.25
2022-07-26T09:32:32.497Z,5.38
2022-07-26T09:37:42.387Z,5.32
2022-07-26T09:42:36.664Z,5.15
2022-07-26T09:47:42.764Z,4.88
2022-07-26T09:52:36.577Z,5.20
2022-07-26T09:57:30.008Z,5.70
2022-07-26T10:02:26.952Z,5.55
2022-07-26T10:07:27.251Z,5.47
2022-07-26T10:12:30.689Z,6.00
2022-07-26T10:17:31.633Z,5.70
2022-07-26T10:22:31.321Z,6.80
2022-07-26T10:27:38.739Z,6.68
2022-07-26T10:32:34.166Z,6.10
2022-07-26T10:37:28.416Z,5.68
2022-07-26T10:42:21.283Z,6.05
2022-07-26T10:47:16.573Z,6.18
2022-07-26T10:52:14.394Z,5.25
2022-07-26T10:57:08.762Z,5.30
2022-07-26T11:02:04.355Z,5.15
2022-07-26T11:07:01.772Z,5.57
2022-07-26T11:11:55.914Z,5.60
2022-07-26T11:16:50.955Z,5.13
2022-07-26T11:21:45.965Z,5.60
2022-07-26T11:26:47.895Z,5.10
2022-07-26T11:31:52.065Z,5.47
2022-07-26T11:36:57.755Z,5.53
2022-07-26T11:41:53.496Z,5.68
2022-07-26T11:46:50.920Z,5.65
2022-07-26T11:51:56.520Z,5.63
2022-07-26T11:57:03.834Z,5.30
2022-07-26T12:01:58.739Z,5.25
2022-07-26T12:06:53.954Z,4.85
2022-07-26T12:11:48.821Z,5.30
2022-07-26T12:16:42.838Z,5.30
2022-07-26T12:22:13.425Z,5.18
2022-07-26T12:27:11.002Z,4.75
2022-07-26T12:32:34.936Z,5.32
2022-07-26T12:37:40.062Z,4.95
2022-07-26T12:42:41.275Z,5.55
2022-07-26T12:47:35.476Z,4.90
2022-07-26T12:52:28.440Z,4.65
2022-07-26T12:57:24.438Z,4.45
2022-07-26T13:02:24.270Z,4.65
2022-07-26T13:07:25.982Z,5.10
2022-07-26T13:12:20.030Z,4.78
2022-07-26T13:17:13.711Z,5.20
2022-07-26T13:22:08.918Z,5.20
2022-07-26T13:27:03.929Z,5.07
2022-07-26T13:31:58.840Z,5.97
2022-07-26T13:36:53.122Z,5.30
2022-07-26T13:41:47.337Z,5.53
2022-07-26T13:46:42.305Z,5.40
2022-07-26T13:52:16.903Z,5.45
2022-07-26T13:57:11.550Z,4.70
2022-07-26T14:02:05.510Z,6.20
2022-07-26T14:07:00.282Z,6.03
2022-07-26T14:11:53.758Z,5.68
2022-07-26T14:16:49.428Z,5.60
2022-07-26T14:21:59.685Z,5.40
2022-07-26T14:26:58.818Z,6.38
2022-07-26T14:31:53.769Z,5.93
2022-07-26T14:36:48.027Z,5.28
2022-07-26T14:41:42.234Z,5.65
2022-07-26T14:46:36.438Z,6.40
2022-07-26T14:51:29.781Z,6.57
2022-07-26T14:56:23.739Z,6.13
2022-07-26T15:01:18.157Z,6.35
2022-07-26T15:06:11.605Z,6.38
2022-07-26T15:11:06.388Z,6.72
2022-07-26T15:16:00.723Z,7.47
2022-07-26T15:20:54.325Z,6.57
2022-07-26T15:25:49.463Z,6.25
2022-07-26T15:30:43.624Z,7.03
2022-07-26T15:35:39.829Z,7.30
2022-07-26T15:40:34.313Z,6.75
2022-07-26T15:45:28.206Z,6.93
2022-07-26T15:50:23.768Z,7.30
2022-07-26T15:55:19.064Z,7.45
2022-07-26T16:00:14.721Z,6.97
2022-07-26T16:05:09.734Z,6.60
2022-07-26T16:10:06.839Z,7.10
2022-07-26T16:15:01.336Z,7.30
2022-07-26T16:19:55.576Z,7.15
2022-07-26T16:24:49.336Z,7.53
2022-07-26T16:29:51.695Z,6.95
2022-07-26T16:34:46.642Z,8.25
2022-07-26T16:39:40.089Z,7.13
2022-07-26T16:44:33.689Z,7.25
2022-07-26T16:49:27.197Z,6.82
2022-07-26T16:54:21.908Z,7.00
2022-07-26T16:59:16.309Z,7.40
2022-07-26T17:04:11.420Z,6.65
2022-07-26T17:09:05.866Z,6.70
2022-07-26T17:13:58.838Z,7.25
2022-07-26T17:18:51.543Z,7.60
2022-07-26T17:23:45.620Z,6.85
2022-07-26T17:28:39.389Z,6.43
2022-07-26T17:33:32.734Z,6.97
2022-07-26T17:38:27.354Z,7.45
2022-07-26T17:43:21.909Z,7.53
2022-07-26T17:48:19.667Z,6.88
2022-07-26T17:53:15.285Z,7.63
2022-07-26T17:58:13.523Z,7.45
2022-07-26T18:03:07.545Z,6.75
2022-07-26T18:08:01.663Z,7.25
2022-07-26T18:12:56.053Z,7.05
2022-07-26T18:17:50.743Z,7.10
2022-07-26T18:22:45.746Z,7.35
2022-07-26T18:27:44.184Z,7.30
2022-07-26T18:32:37.858Z,7.43
2022-07-26T18:37:32.493Z,7.05
2022-07-26T18:42:26.284Z,7.38
2022-07-26T18:47:20.580Z,7.57
2022-07-26T18:52:14.556Z,7.80
2022-07-26T18:57:09.692Z,7.55
2022-07-26T19:02:04.500Z,8.20
2022-07-26T19:07:00.093Z,8.00
2022-07-26T19:11:53.853Z,8.25
2022-07-26T19:16:47.400Z,7.13
2022-07-26T19:21:46.168Z,8.13
2022-07-26T19:26:39.605Z,7.60
2022-07-26T19:31:34.155Z,8.00
2022-07-26T19:36:28.478Z,7.80
2022-07-26T19:41:22.719Z,8.15
2022-07-26T19:46:16.930Z,7.72
2022-07-26T19:51:11.164Z,7.78
2022-07-26T19:56:06.437Z,6.95
2022-07-26T20:01:00.326Z,7.38
2022-07-26T20:05:56.122Z,7.60
2022-07-26T20:10:50.938Z,6.63
2022-07-26T20:15:44.450Z,6.38
2022-07-26T20:20:38.872Z,5.95
2022-07-26T20:25:33.288Z,5.75
2022-07-26T20:30:27.158Z,6.20
2022-07-26T20:35:21.603Z,5.50
2022-07-26T20:40:17.906Z,4.88
2022-07-26T20:45:13.915Z,4.57
2022-07-26T20:50:10.696Z,4.10
2022-07-26T20:55:05.662Z,4.20
2022-07-26T20:59:59.707Z,4.40
2022-07-26T21:04:54.204Z,4.53
2022-07-26T21:09:48.985Z,4.10
2022-07-26T21:14:43.413Z,4.15
2022-07-26T21:19:37.525Z,4.25
2022-07-26T21:24:35.636Z,4.43
2022-07-26T21:29:30.741Z,4.32
2022-07-26T21:34:27.522Z,4.35
2022-07-26T21:39:21.174Z,4.60
2022-07-26T21:44:15.863Z,4.10
2022-07-26T21:49:10.271Z,4.95
2022-07-26T21:54:05.021Z,4.78
2022-07-26T21:59:00.440Z,4.43
2022-07-26T22:03:52.469Z,4.63
2022-07-26T22:08:46.675Z,5.18
2022-07-26T22:13:42.004Z,6.18
2022-07-26T22:18:36.255Z,4.85
2022-07-26T22:23:32.826Z,5.00
2022-07-26T22:28:26.888Z,4.47
2022-07-26T22:33:21.270Z,5.20
2022-07-26T22:38:15.060Z,4.50
2022-07-26T22:43:09.112Z,4.85
2022-07-26T22:48:03.513Z,4.93
2022-07-26T22:52:57.442Z,4.97
2022-07-26T22:57:51.677Z,4.70
2022-07-26T23:02:46.103Z,5.10
2022-07-26T23:07:45.390Z,4.50
2022-07-26T23:12:42.606Z,5.25
2022-07-26T23:17:40.468Z,5.05
2022-07-26T23:22:33.557Z,5.28
2022-07-26T23:27:26.714Z,5.70
2022-07-26T23:32:21.463Z,5.25
2022-07-26T23:37:16.213Z,5.35
2022-07-26T23:42:10.009Z,4.38
2022-07-26T23:47:07.143Z,5.82
2022-07-26T23:52:01.343Z,5.22
2022-07-26T23:56:55.882Z,5.20
